Time;durP1;ratioP1;P1;durP2;ratioP2;P2;SDS_P1;SDS_P2;PMS_P1;PMS_P2;Temp;Humidity;BMP_temperature;BMP_pressure;BME280_temperature;BME280_humidity;BME280_pressure;Samples;Min_cycle;Max_cycle;Signal;HPM_P1;HPM_P2
2024/02/18 00:01:16;;;;;;;9.27;2.30;;;9.50;94.80;;;;;;5030614;28;20048;-68
2024/02/18 00:04:02;;;;;;;7.97;2.67;;;9.60;94.80;;;;;;5035225;28;20414;-69
2024/02/18 00:06:47;;;;;;;5.13;2.75;;;9.60;94.80;;;;;;5038215;28;20477;-69
2024/02/18 00:09:33;;;;;;;6.55;2.72;;;9.60;94.90;;;;;;5020467;28;20052;-69
2024/02/18 00:12:22;;;;;;;7.22;2.50;;;9.70;94.90;;;;;;5034209;28;20037;-69
2024/02/18 00:15:09;;;;;;;9.15;2.50;;;9.70;94.90;;;;;;5031279;28;20065;-69
2024/02/18 00:17:55;;;;;;;7.55;3.22;;;9.80;94.80;;;;;;5036460;28;20458;-69
2024/02/18 00:20:41;;;;;;;8.23;3.63;;;9.80;94.80;;;;;;5033190;28;20279;-70
2024/02/18 00:23:28;;;;;;;8.60;3.67;;;9.90;94.70;;;;;;5016321;28;20083;-70
2024/02/18 00:26:14;;;;;;;7.07;3.40;;;9.90;94.60;;;;;;5022101;28;20128;-69
2024/02/18 00:29:00;;;;;;;6.35;3.42;;;9.90;94.60;;;;;;5036563;28;20033;-70
2024/02/18 00:31:46;;;;;;;7.35;3.67;;;9.90;94.50;;;;;;5032732;28;20041;-69
2024/02/18 00:34:32;;;;;;;7.65;3.80;;;9.90;94.40;;;;;;5037518;28;20057;-69
2024/02/18 00:37:18;;;;;;;6.07;3.25;;;10.00;94.30;;;;;;5019977;28;20037;-68
2024/02/18 00:40:05;;;;;;;7.10;4.00;;;10.00;94.30;;;;;;5031668;28;20115;-68
2024/02/18 00:42:51;;;;;;;7.13;3.88;;;10.00;94.30;;;;;;5035156;28;20470;-68
2024/02/18 00:45:37;;;;;;;7.80;4.82;;;9.90;94.20;;;;;;5036598;28;20052;-68
2024/02/18 00:48:23;;;;;;;8.77;4.55;;;9.90;94.20;;;;;;5041900;28;20383;-68
2024/02/18 00:51:09;;;;;;;6.45;4.45;;;9.90;94.10;;;;;;5042401;28;20042;-68
2024/02/18 00:53:55;;;;;;;11.82;5.57;;;9.80;94.10;;;;;;5037112;28;20155;-68
2024/02/18 00:56:41;;;;;;;9.00;5.50;;;9.80;94.00;;;;;;5043774;28;20041;-68
2024/02/18 00:59:27;;;;;;;9.63;4.95;;;9.80;94.10;;;;;;5016473;28;20064;-68
2024/02/18 01:02:13;;;;;;;7.65;4.63;;;9.80;94.00;;;;;;5031330;28;20049;-68
2024/02/18 01:04:59;;;;;;;10.13;5.35;;;9.80;94.00;;;;;;5034042;28;20036;-68
2024/02/18 01:07:45;;;;;;;12.45;5.30;;;9.70;94.20;;;;;;5040986;28;20072;-68
2024/02/18 01:10:31;;;;;;;6.47;4.95;;;9.70;94.00;;;;;;5030941;28;20038;-68
2024/02/18 01:13:17;;;;;;;8.30;4.50;;;9.80;94.10;;;;;;5038100;28;20128;-68
2024/02/18 01:16:03;;;;;;;14.25;5.03;;;9.80;94.00;;;;;;5040533;28;20275;-69
2024/02/18 01:18:50;;;;;;;12.10;5.95;;;9.80;94.00;;;;;;5043848;28;20040;-68
2024/02/18 01:21:36;;;;;;;7.13;4.63;;;9.80;94.00;;;;;;5042396;28;20053;-69
2024/02/18 01:24:22;;;;;;;7.57;4.97;;;9.80;94.10;;;;;;5037824;28;20098;-67
2024/02/18 01:27:08;;;;;;;9.38;4.20;;;9.80;94.10;;;;;;5039154;28;20048;-67
2024/02/18 01:29:53;;;;;;;7.90;3.70;;;9.90;94.10;;;;;;5035222;28;20038;-67
2024/02/18 01:32:39;;;;;;;8.65;3.85;;;9.90;94.20;;;;;;5033707;28;20103;-67
2024/02/18 01:35:25;;;;;;;9.30;2.95;;;9.90;94.20;;;;;;5042357;28;20053;-67
2024/02/18 01:38:11;;;;;;;5.95;3.00;;;9.90;94.20;;;;;;5041286;28;20053;-67
2024/02/18 01:40:57;;;;;;;5.43;2.60;;;10.00;94.20;;;;;;5041012;28;20045;-68
2024/02/18 01:43:43;;;;;;;7.60;2.25;;;10.00;94.20;;;;;;5041885;28;20144;-67
2024/02/18 01:46:30;;;;;;;7.32;2.22;;;10.00;94.20;;;;;;5029693;28;20083;-67
2024/02/18 01:49:16;;;;;;;11.25;2.65;;;10.00;94.20;;;;;;5038570;28;20041;-68
2024/02/18 01:52:02;;;;;;;6.90;1.92;;;10.00;94.30;;;;;;5045822;28;20033;-68
2024/02/18 01:54:48;;;;;;;8.02;2.35;;;10.00;94.20;;;;;;5043314;28;20057;-67
2024/02/18 01:57:34;;;;;;;7.53;2.78;;;10.00;94.20;;;;;;5044050;28;20037;-68
2024/02/18 02:00:21;;;;;;;8.38;2.97;;;10.00;94.20;;;;;;5035953;28;20041;-67
2024/02/18 02:03:08;;;;;;;5.05;2.22;;;10.10;94.20;;;;;;5049367;28;20029;-67
2024/02/18 02:05:55;;;;;;;6.72;2.60;;;10.10;94.10;;;;;;5044585;28;20104;-67
2024/02/18 02:08:41;;;;;;;6.75;3.42;;;10.10;94.10;;;;;;5041890;28;20417;-68
2024/02/18 02:11:27;;;;;;;6.20;2.95;;;10.10;94.10;;;;;;5037304;28;20041;-68
2024/02/18 02:14:13;;;;;;;9.20;2.60;;;10.10;94.00;;;;;;5041129;28;20630;-68
2024/02/18 02:16:59;;;;;;;6.03;2.70;;;10.10;94.00;;;;;;5039516;28;20035;-68
2024/02/18 02:19:45;;;;;;;7.70;3.08;;;10.10;93.90;;;;;;5037798;28;20080;-68
2024/02/18 02:22:31;;;;;;;7.40;2.60;;;10.10;93.90;;;;;;5044278;28;20029;-67
2024/02/18 02:25:17;;;;;;;6.50;2.83;;;10.10;93.80;;;;;;5033445;28;20059;-67
2024/02/18 02:28:19;;;;;;;7.75;3.53;;;10.10;93.80;;;;;;5028682;28;20045;-68
2024/02/18 02:31:05;;;;;;;7.57;3.05;;;10.10;93.80;;;;;;5035861;28;20056;-68
2024/02/18 02:33:52;;;;;;;9.43;3.40;;;10.00;93.80;;;;;;5040818;28;20037;-68
2024/02/18 02:36:38;;;;;;;8.30;3.40;;;10.00;93.80;;;;;;5036568;28;20490;-68
2024/02/18 02:39:24;;;;;;;6.68;3.50;;;9.90;93.70;;;;;;5035356;28;20095;-68
2024/02/18 02:42:10;;;;;;;6.13;3.13;;;9.90;93.70;;;;;;5024692;28;20478;-68
2024/02/18 02:44:55;;;;;;;6.78;2.92;;;9.80;93.70;;;;;;5044634;28;20044;-68
2024/02/18 02:47:42;;;;;;;7.07;2.60;;;9.80;93.60;;;;;;5046479;28;20040;-68
2024/02/18 02:50:28;;;;;;;7.55;2.88;;;9.80;93.60;;;;;;5039948;28;20049;-68
2024/02/18 02:53:14;;;;;;;5.90;2.35;;;9.70;93.60;;;;;;5037132;28;20418;-68
2024/02/18 02:56:00;;;;;;;7.95;2.45;;;9.70;93.70;;;;;;5037637;28;20509;-68
2024/02/18 02:58:46;;;;;;;8.23;2.72;;;9.70;93.70;;;;;;5033876;28;20064;-68
2024/02/18 03:01:32;;;;;;;8.05;2.72;;;9.70;93.70;;;;;;5039667;28;20045;-68
2024/02/18 03:04:18;;;;;;;9.15;2.35;;;9.60;93.60;;;;;;5044766;28;20374;-68
2024/02/18 03:07:04;;;;;;;6.90;2.53;;;9.60;93.60;;;;;;5041648;28;20049;-68
2024/02/18 03:09:50;;;;;;;7.03;2.95;;;9.50;93.60;;;;;;5035811;28;20045;-68
2024/02/18 03:12:36;;;;;;;5.97;2.30;;;9.50;93.70;;;;;;5031821;28;20465;-68
2024/02/18 03:15:21;;;;;;;6.43;2.38;;;9.40;93.70;;;;;;5048313;28;20049;-68
2024/02/18 03:18:09;;;;;;;10.10;2.55;;;9.40;93.70;;;;;;5037943;28;20098;-68
2024/02/18 03:20:55;;;;;;;5.20;2.47;;;9.30;93.70;;;;;;5040046;28;20045;-68
2024/02/18 03:23:42;;;;;;;6.78;2.72;;;9.40;93.70;;;;;;5035737;28;20429;-68
2024/02/18 03:26:29;;;;;;;6.38;2.13;;;9.30;93.70;;;;;;5028772;28;20504;-68
2024/02/18 03:29:15;;;;;;;8.10;3.13;;;9.30;93.80;;;;;;5034938;28;20037;-67
2024/02/18 03:32:01;;;;;;;8.07;2.53;;;9.30;93.80;;;;;;5035573;28;20484;-68
2024/02/18 03:34:48;;;;;;;7.13;2.67;;;9.20;93.80;;;;;;5046147;28;20041;-67
2024/02/18 03:37:34;;;;;;;9.40;2.65;;;9.20;93.80;;;;;;5041220;28;20405;-67
2024/02/18 03:40:20;;;;;;;8.75;2.83;;;9.10;93.80;;;;;;5041214;28;20045;-67
2024/02/18 03:43:06;;;;;;;5.32;2.85;;;9.00;93.80;;;;;;5033503;28;20053;-67
2024/02/18 03:45:52;;;;;;;11.18;3.08;;;9.00;93.90;;;;;;5032234;28;20045;-67
2024/02/18 03:48:38;;;;;;;9.60;3.22;;;8.90;93.90;;;;;;5030975;28;20067;-67
2024/02/18 03:51:24;;;;;;;6.05;2.35;;;8.90;94.00;;;;;;5037900;28;20036;-67
2024/02/18 03:54:10;;;;;;;7.43;3.00;;;8.80;94.10;;;;;;5041414;28;20045;-67
2024/02/18 03:56:56;;;;;;;7.70;2.65;;;8.70;94.20;;;;;;5041959;28;20055;-67
2024/02/18 03:59:42;;;;;;;6.70;3.03;;;8.70;94.30;;;;;;5035514;28;20042;-67
2024/02/18 04:02:28;;;;;;;4.70;2.78;;;8.60;94.30;;;;;;5035344;28;20595;-67
2024/02/18 04:05:14;;;;;;;6.07;2.13;;;8.60;94.40;;;;;;5046431;28;20520;-67
2024/02/18 04:08:00;;;;;;;7.47;2.10;;;8.50;94.50;;;;;;5022760;28;20122;-68
2024/02/18 04:10:46;;;;;;;7.95;2.75;;;8.50;94.50;;;;;;5035864;28;20045;-68
2024/02/18 04:13:32;;;;;;;4.00;2.10;;;8.40;94.60;;;;;;5040208;28;20068;-67
2024/02/18 04:16:18;;;;;;;6.13;2.40;;;8.40;94.60;;;;;;5020147;28;20102;-68
2024/02/18 04:19:06;;;;;;;7.35;3.05;;;8.40;94.60;;;;;;5043846;28;20454;-67
2024/02/18 04:21:51;;;;;;;6.47;3.00;;;8.40;94.60;;;;;;5035695;28;20033;-68
2024/02/18 04:24:40;;;;;;;9.07;3.17;;;8.40;94.70;;;;;;5038697;28;20099;-68
2024/02/18 04:27:26;;;;;;;5.93;2.20;;;8.30;94.70;;;;;;5034809;28;20048;-68
2024/02/18 04:30:13;;;;;;;5.75;3.15;;;8.30;94.80;;;;;;5042948;28;20045;-68
2024/02/18 04:32:58;;;;;;;8.02;2.55;;;8.20;94.80;;;;;;5023551;28;20124;-68
2024/02/18 04:35:44;;;;;;;4.88;2.55;;;8.20;94.90;;;;;;5037004;28;20057;-67
2024/02/18 04:38:30;;;;;;;8.63;3.38;;;8.20;94.90;;;;;;5044774;28;20041;-67
2024/02/18 04:41:16;;;;;;;9.57;3.80;;;8.20;95.00;;;;;;5039188;28;20049;-67
2024/02/18 04:44:03;;;;;;;7.28;2.85;;;8.10;95.00;;;;;;5034832;28;20040;-67
2024/02/18 04:46:49;;;;;;;12.95;2.65;;;8.10;95.10;;;;;;5037691;28;20099;-68
2024/02/18 04:49:35;;;;;;;7.25;2.63;;;7.90;95.10;;;;;;5043730;28;20037;-67
2024/02/18 04:52:21;;;;;;;8.18;2.80;;;8.00;95.10;;;;;;5038467;28;20049;-67
2024/02/18 04:55:07;;;;;;;8.52;3.13;;;7.90;95.20;;;;;;5040995;28;20104;-67
2024/02/18 04:57:53;;;;;;;4.90;2.40;;;7.90;95.30;;;;;;5035278;28;20080;-67
2024/02/18 05:00:39;;;;;;;10.73;3.47;;;7.80;95.30;;;;;;5034116;28;20037;-67
2024/02/18 05:03:25;;;;;;;12.35;3.75;;;7.80;95.40;;;;;;5036225;28;20402;-67
2024/02/18 05:06:11;;;;;;;10.98;3.75;;;7.80;95.40;;;;;;5039233;28;20486;-67
2024/02/18 05:08:57;;;;;;;6.93;3.08;;;7.80;95.40;;;;;;5041184;28;20424;-67
2024/02/18 05:11:43;;;;;;;7.20;2.60;;;7.80;95.50;;;;;;5042816;28;20464;-67
2024/02/18 05:14:29;;;;;;;5.20;2.97;;;7.80;95.50;;;;;;5038854;28;20532;-67
2024/02/18 05:17:15;;;;;;;9.73;3.20;;;7.80;95.50;;;;;;5047063;28;20037;-67
2024/02/18 05:20:01;;;;;;;7.15;2.95;;;7.80;95.60;;;;;;5035433;28;20452;-67
2024/02/18 05:22:47;;;;;;;6.18;2.55;;;7.70;95.60;;;;;;5037478;28;20099;-67
2024/02/18 05:25:33;;;;;;;5.13;2.70;;;7.70;95.60;;;;;;5041546;28;20045;-67
2024/02/18 05:28:19;;;;;;;7.93;3.35;;;7.80;95.90;;;;;;5035592;28;20409;-69
2024/02/18 05:31:24;;;;;;;11.23;3.03;;;7.80;95.70;;;;;;5033546;28;20750;-68
2024/02/18 05:34:11;;;;;;;6.53;3.13;;;7.70;95.80;;;;;;5046162;28;20041;-68
2024/02/18 05:36:57;;;;;;;8.50;3.88;;;7.70;95.70;;;;;;5046604;28;20057;-68
2024/02/18 05:39:43;;;;;;;15.30;3.30;;;7.70;95.80;;;;;;5035664;28;20087;-68
2024/02/18 05:42:29;;;;;;;9.40;2.97;;;7.70;95.80;;;;;;5041306;28;20049;-68
2024/02/18 05:45:20;;;;;;;6.65;2.45;;;7.60;95.90;;;;;;5046127;28;20034;-68
2024/02/18 05:48:07;;;;;;;10.00;3.20;;;7.60;95.90;;;;;;5037877;28;20046;-68
2024/02/18 05:50:53;;;;;;;5.65;2.65;;;7.60;95.90;;;;;;5047873;28;20076;-68
2024/02/18 05:53:38;;;;;;;5.18;2.67;;;7.60;95.90;;;;;;5037742;28;20076;-68
2024/02/18 05:56:24;;;;;;;9.68;2.85;;;7.60;96.00;;;;;;5034679;28;20489;-68
2024/02/18 05:59:10;;;;;;;7.53;3.55;;;7.60;96.00;;;;;;5036625;28;20049;-68
2024/02/18 06:01:56;;;;;;;12.13;4.03;;;7.60;96.00;;;;;;5045465;28;20045;-68
2024/02/18 06:04:42;;;;;;;6.63;2.97;;;7.50;96.00;;;;;;5040694;28;20455;-68
2024/02/18 06:07:28;;;;;;;9.43;2.75;;;7.50;96.00;;;;;;5036700;28;20472;-68
2024/02/18 06:10:14;;;;;;;7.28;2.35;;;7.50;96.00;;;;;;5037286;28;20083;-68
2024/02/18 06:13:00;;;;;;;7.55;2.58;;;7.50;96.10;;;;;;5040645;28;20899;-67
2024/02/18 06:15:46;;;;;;;7.85;3.17;;;7.50;96.10;;;;;;5032668;28;20053;-67
2024/02/18 06:18:32;;;;;;;6.10;2.55;;;7.50;96.20;;;;;;5038287;28;20052;-67
2024/02/18 06:21:22;;;;;;;9.57;3.10;;;7.50;96.20;;;;;;5035008;28;20490;-67
2024/02/18 06:24:08;;;;;;;7.07;2.80;;;7.40;96.20;;;;;;5040754;28;20037;-67
2024/02/18 06:26:54;;;;;;;8.93;3.78;;;7.40;96.30;;;;;;5037664;28;20401;-67
2024/02/18 06:29:40;;;;;;;12.68;2.72;;;7.40;96.40;;;;;;5029021;28;20083;-67
2024/02/18 06:32:26;;;;;;;5.28;2.97;;;7.40;96.40;;;;;;5035946;28;20041;-67
2024/02/18 06:35:12;;;;;;;5.05;2.70;;;7.30;96.50;;;;;;5043725;28;20065;-67
2024/02/18 06:37:58;;;;;;;9.30;3.13;;;7.40;96.60;;;;;;5032689;28;20038;-67
2024/02/18 06:40:44;;;;;;;8.93;2.97;;;7.30;96.60;;;;;;5034634;28;20041;-67
2024/02/18 06:43:30;;;;;;;8.02;3.95;;;7.40;96.70;;;;;;5032813;28;20107;-69
2024/02/18 06:46:16;;;;;;;8.27;3.40;;;7.30;96.80;;;;;;5044496;28;20041;-68
2024/02/18 06:49:02;;;;;;;7.10;3.40;;;7.30;96.80;;;;;;5044985;28;20033;-69
2024/02/18 06:51:48;;;;;;;6.28;3.42;;;7.30;96.90;;;;;;5044916;28;20045;-69
2024/02/18 06:54:34;;;;;;;6.53;2.97;;;7.40;96.90;;;;;;5040230;28;20053;-69
2024/02/18 06:57:20;;;;;;;7.00;3.60;;;7.40;97.00;;;;;;5039699;28;20053;-69
2024/02/18 07:00:08;;;;;;;6.72;3.00;;;7.40;97.00;;;;;;5031936;28;20041;-69
2024/02/18 07:02:54;;;;;;;9.18;3.35;;;7.40;97.10;;;;;;5037768;28;20034;-68
2024/02/18 07:05:40;;;;;;;6.38;2.88;;;7.40;97.10;;;;;;5039088;28;20041;-68
2024/02/18 07:08:26;;;;;;;12.50;3.60;;;7.50;97.20;;;;;;5031344;28;20033;-69
2024/02/18 07:11:13;;;;;;;13.45;3.30;;;7.50;97.20;;;;;;5027083;28;20034;-68
2024/02/18 07:13:59;;;;;;;9.90;3.33;;;7.50;97.20;;;;;;5044701;28;20088;-68
2024/02/18 07:16:45;;;;;;;7.82;2.88;;;7.50;97.20;;;;;;5040752;28;20037;-69
2024/02/18 07:19:31;;;;;;;8.43;2.88;;;7.50;97.30;;;;;;5035990;28;20041;-68
2024/02/18 07:22:17;;;;;;;7.43;3.40;;;7.60;97.30;;;;;;5037823;28;20504;-68
2024/02/18 07:25:06;;;;;;;7.78;3.25;;;7.60;97.30;;;;;;5039538;28;20041;-70
2024/02/18 07:27:52;;;;;;;8.13;3.38;;;7.60;97.40;;;;;;5037692;28;20025;-67
2024/02/18 07:30:38;;;;;;;12.25;3.97;;;7.70;97.40;;;;;;5040821;28;20041;-68
2024/02/18 07:33:24;;;;;;;8.02;3.47;;;7.70;97.40;;;;;;5046799;28;20064;-69
2024/02/18 07:36:10;;;;;;;10.38;3.35;;;7.70;97.30;;;;;;5018322;28;20124;-70
2024/02/18 07:38:56;;;;;;;6.57;3.08;;;7.80;97.30;;;;;;5031237;28;20045;-67
2024/02/18 07:41:42;;;;;;;6.63;3.63;;;7.80;97.40;;;;;;5034342;28;20393;-64
2024/02/18 07:44:28;;;;;;;8.65;3.25;;;7.80;97.40;;;;;;5044801;28;20091;-66
2024/02/18 07:47:14;;;;;;;7.75;4.05;;;7.80;97.40;;;;;;5030397;28;20041;-64
2024/02/18 07:50:00;;;;;;;8.25;3.15;;;7.90;97.40;;;;;;5038395;28;20038;-64
2024/02/18 07:52:46;;;;;;;7.35;3.20;;;7.90;97.50;;;;;;5036823;28;20057;-63
2024/02/18 07:55:32;;;;;;;10.05;4.15;;;8.00;97.50;;;;;;5033670;28;20042;-64
2024/02/18 07:58:18;;;;;;;9.35;3.17;;;8.00;97.50;;;;;;5039144;28;20485;-64
2024/02/18 08:01:04;;;;;;;8.30;3.28;;;8.10;97.50;;;;;;5039049;28;20125;-64
2024/02/18 08:03:50;;;;;;;7.53;3.20;;;8.10;97.50;;;;;;5037060;28;20560;-64
2024/02/18 08:06:36;;;;;;;11.07;4.32;;;8.20;97.60;;;;;;5032782;28;20449;-64
2024/02/18 08:09:22;;;;;;;8.63;3.78;;;8.30;97.50;;;;;;5047265;28;20532;-65
2024/02/18 08:12:08;;;;;;;13.27;4.78;;;8.40;97.50;;;;;;5029104;28;20508;-64
2024/02/18 08:14:54;;;;;;;8.40;3.95;;;8.40;97.40;;;;;;5030235;28;20057;-65
2024/02/18 08:17:41;;;;;;;8.43;3.75;;;8.40;97.40;;;;;;5037754;28;20033;-65
2024/02/18 08:20:26;;;;;;;7.75;3.13;;;8.50;97.60;;;;;;5044863;28;20046;-65
2024/02/18 08:23:12;;;;;;;12.20;4.20;;;8.60;97.40;;;;;;5035859;28;20052;-66
2024/02/18 08:25:58;;;;;;;8.05;3.75;;;8.60;97.30;;;;;;5035229;28;20417;-68
2024/02/18 08:28:44;;;;;;;7.20;3.63;;;8.70;97.30;;;;;;5031646;28;20494;-67
2024/02/18 08:31:30;;;;;;;6.95;3.50;;;8.70;97.20;;;;;;5033874;28;20041;-67
2024/02/18 08:34:16;;;;;;;9.50;3.97;;;8.80;97.10;;;;;;5036043;28;20042;-68
2024/02/18 08:37:03;;;;;;;6.35;3.90;;;8.80;97.00;;;;;;5038247;28;20072;-68
2024/02/18 08:39:49;;;;;;;8.48;3.58;;;8.90;97.10;;;;;;5031264;28;20056;-67
2024/02/18 08:42:35;;;;;;;10.57;4.32;;;8.90;97.00;;;;;;5035441;28;20086;-67
2024/02/18 08:45:20;;;;;;;8.85;3.33;;;9.00;96.90;;;;;;5036208;28;20084;-68
2024/02/18 08:48:07;;;;;;;9.77;3.60;;;9.00;96.80;;;;;;5038711;28;20045;-66
2024/02/18 08:50:53;;;;;;;7.35;3.47;;;9.00;96.80;;;;;;5046220;28;20052;-66
2024/02/18 08:53:40;;;;;;;8.82;3.60;;;9.00;96.70;;;;;;5035263;28;20076;-66
2024/02/18 08:56:26;;;;;;;26.88;5.45;;;9.00;96.70;;;;;;5027457;28;20064;-66
2024/02/18 08:59:12;;;;;;;7.00;3.28;;;9.00;96.60;;;;;;5033687;28;20044;-66
2024/02/18 09:02:00;;;;;;;6.07;2.97;;;9.10;96.60;;;;;;5029166;28;20045;-66
2024/02/18 09:04:46;;;;;;;6.68;3.15;;;9.20;96.60;;;;;;5038227;28;20092;-66
2024/02/18 09:07:32;;;;;;;8.30;4.03;;;9.20;96.50;;;;;;5034432;28;20029;-66
2024/02/18 09:10:18;;;;;;;8.10;3.65;;;9.20;96.50;;;;;;5015595;28;20084;-66
2024/02/18 09:13:05;;;;;;;8.13;3.72;;;9.30;96.60;;;;;;5029742;28;20647;-66
2024/02/18 09:15:51;;;;;;;7.18;3.13;;;9.40;96.60;;;;;;5031339;28;20073;-67
2024/02/18 09:18:37;;;;;;;8.20;2.78;;;9.40;96.80;;;;;;5039396;28;20048;-67
2024/02/18 09:21:23;;;;;;;8.50;2.83;;;9.50;96.70;;;;;;5031866;28;20041;-67
2024/02/18 09:24:09;;;;;;;14.60;3.33;;;9.60;96.80;;;;;;5036473;28;20108;-67
2024/02/18 09:26:55;;;;;;;6.35;2.72;;;9.60;96.80;;;;;;5035176;28;20148;-67
2024/02/18 09:29:41;;;;;;;9.32;3.15;;;9.70;96.70;;;;;;5031652;28;20452;-67
2024/02/18 09:32:27;;;;;;;5.38;2.55;;;9.70;96.60;;;;;;5036639;28;20565;-67
2024/02/18 09:35:13;;;;;;;4.65;2.20;;;9.80;96.60;;;;;;5035845;28;20042;-67
2024/02/18 09:38:00;;;;;;;10.52;2.80;;;9.80;96.50;;;;;;5017136;28;20037;-65
2024/02/18 09:40:46;;;;;;;6.60;2.40;;;9.90;96.50;;;;;;5028457;28;20457;-67
2024/02/18 09:43:41;;;;;;;6.53;2.90;;;9.90;96.50;;;;;;5041984;28;20042;-68
2024/02/18 09:46:28;;;;;;;5.25;2.70;;;9.90;96.60;;;;;;5026631;28;20045;-67
2024/02/18 09:49:17;;;;;;;14.15;3.33;;;10.00;96.40;;;;;;5035630;28;20467;-66
2024/02/18 09:52:03;;;;;;;6.65;2.55;;;10.00;96.30;;;;;;5042689;28;20043;-67
2024/02/18 09:54:51;;;;;;;9.93;2.88;;;10.00;96.20;;;;;;5039338;28;20058;-67
2024/02/18 09:57:38;;;;;;;5.97;3.10;;;10.00;96.10;;;;;;5042842;28;20033;-68
2024/02/18 10:00:25;;;;;;;8.23;4.00;;;10.00;96.10;;;;;;5031229;28;20037;-68
2024/02/18 10:03:11;;;;;;;9.27;3.65;;;10.00;96.20;;;;;;5035897;28;20121;-67
2024/02/18 10:05:57;;;;;;;9.40;3.50;;;10.10;96.20;;;;;;5048416;28;20037;-67
2024/02/18 10:08:54;;;;;;;8.20;3.63;;;10.10;96.20;;;;;;5042498;28;20064;-67
2024/02/18 10:11:40;;;;;;;5.20;2.92;;;10.20;96.10;;;;;;5034014;28;20405;-67
2024/02/18 10:14:26;;;;;;;9.00;3.28;;;10.20;96.10;;;;;;5040917;28;20053;-67
2024/02/18 10:17:12;;;;;;;9.38;3.58;;;10.20;96.10;;;;;;5037052;28;20448;-68
2024/02/18 10:19:58;;;;;;;8.45;2.88;;;10.30;96.10;;;;;;5040112;28;20047;-67
2024/02/18 10:22:44;;;;;;;7.65;3.83;;;10.20;96.00;;;;;;5037974;28;20048;-67
2024/02/18 10:25:31;;;;;;;9.13;3.60;;;10.20;96.00;;;;;;5039836;28;20037;-67
2024/02/18 10:28:18;;;;;;;8.27;3.10;;;10.30;96.10;;;;;;5047277;28;20052;-67
2024/02/18 10:31:07;;;;;;;7.88;3.40;;;10.30;96.10;;;;;;5037727;28;20076;-67
2024/02/18 10:33:53;;;;;;;7.75;4.25;;;10.30;96.10;;;;;;5030622;28;20478;-67
2024/02/18 10:36:46;;;;;;;6.00;2.60;;;10.30;96.00;;;;;;5043434;28;20557;-67
2024/02/18 10:39:34;;;;;;;7.25;3.13;;;10.40;96.00;;;;;;5041717;28;20033;-67
2024/02/18 10:42:24;;;;;;;7.72;3.30;;;10.40;96.10;;;;;;5037049;28;20044;-67
2024/02/18 10:45:12;;;;;;;5.82;3.03;;;10.50;96.10;;;;;;5045970;28;20482;-67
2024/02/18 10:48:02;;;;;;;5.13;2.58;;;10.60;96.10;;;;;;5040445;28;20045;-67
2024/02/18 10:50:49;;;;;;;7.45;2.70;;;10.60;96.10;;;;;;5041109;28;20040;-67
2024/02/18 10:53:47;;;;;;;7.40;2.97;;;10.60;96.00;;;;;;5033046;28;20129;-67
2024/02/18 10:56:33;;;;;;;3.30;2.55;;;10.70;96.10;;;;;;5041849;28;20049;-67
2024/02/18 10:59:23;;;;;;;7.53;2.95;;;10.80;96.00;;;;;;5033099;28;20045;-67
2024/02/18 11:02:23;;;;;;;7.00;2.80;;;10.90;95.90;;;;;;5038290;28;20540;-67
2024/02/18 11:05:10;;;;;;;6.63;3.50;;;10.90;95.90;;;;;;5036058;28;20107;-67
2024/02/18 11:07:56;;;;;;;8.77;3.00;;;11.00;95.90;;;;;;5039681;28;20148;-67
2024/02/18 11:10:44;;;;;;;6.72;3.13;;;11.10;96.00;;;;;;5040593;28;20045;-67
2024/02/18 11:13:32;;;;;;;6.05;3.33;;;11.20;95.90;;;;;;5039150;28;20501;-67
2024/02/18 11:16:20;;;;;;;6.35;3.45;;;11.30;95.90;;;;;;5036253;28;20041;-67
2024/02/18 11:19:07;;;;;;;8.07;3.70;;;11.40;95.90;;;;;;5036895;28;20033;-67
2024/02/18 11:21:53;;;;;;;5.80;2.60;;;11.50;95.80;;;;;;5047118;28;20041;-67
2024/02/18 11:24:40;;;;;;;8.88;2.72;;;11.60;95.70;;;;;;5035838;28;20037;-67
2024/02/18 11:27:26;;;;;;;8.68;3.42;;;11.70;95.70;;;;;;5045423;28;20504;-67
2024/02/18 11:30:13;;;;;;;5.40;2.80;;;11.80;95.60;;;;;;5041089;28;20041;-67
2024/02/18 11:33:00;;;;;;;6.13;2.80;;;11.80;95.50;;;;;;5039069;28;20107;-67
2024/02/18 11:35:46;;;;;;;5.97;2.95;;;11.90;95.50;;;;;;5037127;28;20055;-67
2024/02/18 11:38:33;;;;;;;8.68;3.08;;;12.00;95.40;;;;;;5034091;28;20206;-67
2024/02/18 11:41:28;;;;;;;7.78;3.88;;;12.00;95.30;;;;;;5038734;28;20052;-67
2024/02/18 11:44:14;;;;;;;8.48;4.53;;;12.10;95.30;;;;;;5021683;28;20136;-67
2024/02/18 11:47:09;;;;;;;8.55;3.28;;;12.10;95.30;;;;;;5041087;28;20119;-67
2024/02/18 11:49:55;;;;;;;4.45;2.90;;;12.20;95.20;;;;;;5039171;28;20048;-67
2024/02/18 11:52:42;;;;;;;6.55;3.35;;;12.20;95.20;;;;;;5033206;28;20037;-68
2024/02/18 11:55:28;;;;;;;7.32;3.90;;;12.20;95.20;;;;;;5035298;28;20549;-67
2024/02/18 11:58:15;;;;;;;8.57;3.50;;;12.30;95.20;;;;;;5033994;28;20490;-68
2024/02/18 12:01:03;;;;;;;7.85;3.47;;;12.30;95.10;;;;;;5040729;28;20165;-67
2024/02/18 12:03:50;;;;;;;6.22;3.40;;;12.30;95.20;;;;;;5039105;28;20051;-68
2024/02/18 12:06:36;;;;;;;8.07;3.80;;;12.40;95.10;;;;;;5037283;28;20047;-67
2024/02/18 12:09:25;;;;;;;8.02;3.92;;;12.50;95.20;;;;;;5037190;28;20041;-68
2024/02/18 12:12:11;;;;;;;7.25;3.58;;;12.50;95.10;;;;;;5029355;28;20072;-68
2024/02/18 12:14:57;;;;;;;9.88;4.43;;;12.60;95.10;;;;;;5032622;28;20045;-68
2024/02/18 12:17:43;;;;;;;6.28;4.18;;;12.60;95.10;;;;;;5043593;28;20048;-68
2024/02/18 12:20:33;;;;;;;8.07;3.83;;;12.60;95.10;;;;;;5034200;28;20204;-68
2024/02/18 12:23:23;;;;;;;6.50;3.78;;;12.70;95.00;;;;;;5040613;28;20125;-67
2024/02/18 12:26:09;;;;;;;9.20;4.75;;;12.80;95.00;;;;;;5031303;28;20048;-68
2024/02/18 12:28:54;;;;;;;8.48;3.40;;;12.80;95.00;;;;;;5033104;28;20037;-68
2024/02/18 12:31:43;;;;;;;6.32;3.70;;;12.80;95.00;;;;;;5046032;28;20519;-67
2024/02/18 12:34:29;;;;;;;7.25;3.75;;;12.90;95.00;;;;;;5046820;28;20405;-68
2024/02/18 12:37:16;;;;;;;6.00;3.53;;;13.00;95.00;;;;;;5049313;28;20462;-68
2024/02/18 12:40:03;;;;;;;7.90;3.47;;;13.00;94.90;;;;;;5033236;28;20062;-68
2024/02/18 12:42:50;;;;;;;7.97;3.83;;;13.10;94.90;;;;;;5040325;28;20497;-68
2024/02/18 12:45:36;;;;;;;6.60;3.67;;;13.10;94.90;;;;;;5038194;28;20095;-67
2024/02/18 12:48:22;;;;;;;7.78;4.25;;;13.10;94.90;;;;;;5034197;28;20052;-68
2024/02/18 12:51:10;;;;;;;8.13;4.32;;;13.20;95.00;;;;;;5023702;28;20553;-67
2024/02/18 12:53:56;;;;;;;4.88;3.65;;;13.20;94.90;;;;;;5029665;28;20492;-67
2024/02/18 12:56:42;;;;;;;6.40;3.53;;;13.20;94.90;;;;;;5048750;28;20493;-68
2024/02/18 12:59:29;;;;;;;8.30;4.30;;;13.20;94.90;;;;;;5056898;28;20045;-66
2024/02/18 13:02:15;;;;;;;6.78;3.67;;;13.30;95.00;;;;;;5053167;28;20084;-65
2024/02/18 13:05:02;;;;;;;7.25;4.18;;;13.30;95.00;;;;;;5065388;28;20052;-68
2024/02/18 13:07:54;;;;;;;7.45;4.32;;;13.30;94.90;;;;;;5048812;28;20041;-66
2024/02/18 13:10:40;;;;;;;8.07;4.63;;;13.30;94.90;;;;;;5055037;28;20040;-67
2024/02/18 13:13:27;;;;;;;7.00;3.92;;;13.30;95.00;;;;;;5054524;28;20043;-67
2024/02/18 13:16:13;;;;;;;8.43;4.07;;;13.30;95.00;;;;;;5055031;28;20049;-67
2024/02/18 13:18:59;;;;;;;8.48;4.15;;;13.30;95.10;;;;;;5043870;28;20033;-67
2024/02/18 13:21:47;;;;;;;7.03;4.15;;;13.30;95.00;;;;;;5056945;28;20040;-67
2024/02/18 13:24:33;;;;;;;7.55;4.30;;;13.30;95.00;;;;;;5070221;28;20535;-67
2024/02/18 13:27:19;;;;;;;7.53;4.00;;;13.30;95.00;;;;;;5053756;28;20044;-67
2024/02/18 13:30:06;;;;;;;9.40;4.30;;;13.30;95.10;;;;;;5056242;28;20102;-67
2024/02/18 13:32:52;;;;;;;5.68;4.07;;;13.30;95.00;;;;;;5059437;28;20478;-66
2024/02/18 13:35:38;;;;;;;6.82;4.18;;;13.30;95.10;;;;;;5057886;28;20517;-67
2024/02/18 13:38:24;;;;;;;7.18;4.38;;;13.30;95.10;;;;;;5049711;28;20073;-67
2024/02/18 13:41:10;;;;;;;6.90;4.30;;;13.30;95.20;;;;;;5059760;28;20127;-68
2024/02/18 13:43:56;;;;;;;8.18;4.13;;;13.40;95.20;;;;;;5059434;28;20040;-68
2024/02/18 13:46:43;;;;;;;7.25;3.90;;;13.40;95.10;;;;;;5059500;28;20041;-68
2024/02/18 13:49:29;;;;;;;5.82;3.97;;;13.40;95.00;;;;;;5059597;28;20044;-68
2024/02/18 13:52:15;;;;;;;5.95;4.57;;;13.30;95.00;;;;;;5065383;28;20123;-68
2024/02/18 13:55:01;;;;;;;6.72;4.15;;;13.30;95.00;;;;;;5042905;28;20148;-68
2024/02/18 13:57:47;;;;;;;6.55;4.00;;;13.30;95.00;;;;;;5045330;28;20068;-68
2024/02/18 14:00:33;;;;;;;8.68;4.88;;;13.30;95.00;;;;;;5035282;28;20038;-68
2024/02/18 14:03:19;;;;;;;7.18;4.03;;;13.20;94.90;;;;;;5041476;28;20056;-68
2024/02/18 14:06:05;;;;;;;6.45;3.63;;;13.20;95.00;;;;;;5043613;28;20485;-68
2024/02/18 14:08:53;;;;;;;8.13;4.15;;;13.20;95.10;;;;;;5042879;28;20087;-68
2024/02/18 14:11:42;;;;;;;5.78;3.45;;;13.10;95.10;;;;;;5042374;28;20045;-68
2024/02/18 14:14:28;;;;;;;7.20;3.92;;;13.10;95.10;;;;;;5034540;28;20057;-68
2024/02/18 14:17:14;;;;;;;8.40;3.90;;;13.20;95.10;;;;;;5033787;28;20069;-68
2024/02/18 14:20:00;;;;;;;9.63;4.63;;;13.10;95.10;;;;;;5030143;28;20052;-68
2024/02/18 14:22:46;;;;;;;6.97;4.03;;;13.10;95.10;;;;;;5040589;28;20127;-68
2024/02/18 14:25:32;;;;;;;4.88;3.22;;;13.10;95.10;;;;;;5033856;28;20046;-68
2024/02/18 14:28:18;;;;;;;7.13;3.67;;;13.10;95.20;;;;;;5039486;28;20064;-68
2024/02/18 14:31:04;;;;;;;7.28;4.00;;;13.10;95.20;;;;;;5038708;28;20060;-68
2024/02/18 14:33:53;;;;;;;8.57;3.80;;;13.00;95.20;;;;;;5049450;28;20049;-68